sensor_id;sensor_type;location;lat;lon;timestamp;pressure;altitude;pressure_sealevel;temperature;humidity
40982;BME280;26708;50.304;19.028;2023-07-29T00:01:05;97651.34;;;19.24;70.50
40982;BME280;26708;50.304;19.028;2023-07-29T00:03:13;97411.31;;;17.81;70.20
40982;BME280;26708;50.304;19.028;2023-07-29T00:05:19;97746.13;;;19.73;70.03
40982;BME280;26708;50.304;19.028;2023-07-29T00:07:24;97523.59;;;18.65;70.00
40982;BME280;26708;50.304;19.028;2023-07-29T00:09:29;97386.72;;;17.79;69.54
40982;BME280;26708;50.304;19.028;2023-07-29T00:11:47;97758.22;;;19.96;69.66
40982;BME280;26708;50.304;19.028;2023-07-29T00:14:04;97586.91;;;18.71;69.36
40982;BME280;26708;50.304;19.028;2023-07-29T00:19:35;97768.16;;;19.92;69.56
40982;BME280;26708;50.304;19.028;2023-07-29T00:22:18;97758.53;;;19.90;69.70
40982;BME280;26708;50.304;19.028;2023-07-29T00:25:11;97617.97;;;18.86;69.61
40982;BME280;26708;50.304;19.028;2023-07-29T00:27:25;97791.38;;;19.89;69.99
40982;BME280;26708;50.304;19.028;2023-07-29T00:29:37;97335.56;;;17.26;69.98
40982;BME280;26708;50.304;19.028;2023-07-29T00:34:17;97541.38;;;18.63;70.03
40982;BME280;26708;50.304;19.028;2023-07-29T00:36:26;97364.22;;;17.52;69.56
40982;BME280;26708;50.304;19.028;2023-07-29T00:38:47;97765.59;;;19.91;69.78
40982;BME280;26708;50.304;19.028;2023-07-29T00:41:08;97745.19;;;19.91;70.04
40982;BME280;26708;50.304;19.028;2023-07-29T00:43:32;97357.59;;;17.62;69.85
40982;BME280;26708;50.304;19.028;2023-07-29T00:45:48;97616.25;;;19.02;70.09
40982;BME280;26708;50.304;19.028;2023-07-29T00:47:57;97705.72;;;19.67;70.01
40982;BME280;26708;50.304;19.028;2023-07-29T00:50:20;97592.34;;;18.85;70.28
40982;BME280;26708;50.304;19.028;2023-07-29T00:52:57;97656.44;;;19.46;70.17
40982;BME280;26708;50.304;19.028;2023-07-29T00:55:18;97741.28;;;19.98;70.09
40982;BME280;26708;50.304;19.028;2023-07-29T00:57:43;97423.63;;;17.99;70.28
40982;BME280;26708;50.304;19.028;2023-07-29T00:59:54;97517.34;;;18.66;70.16
40982;BME280;26708;50.304;19.028;2023-07-29T01:03:13;97368.78;;;17.84;70.25
40982;BME280;26708;50.304;19.028;2023-07-29T01:05:55;97362.25;;;17.74;70.11
40982;BME280;26708;50.304;19.028;2023-07-29T01:08:38;97678.41;;;19.65;70.25
40982;BME280;26708;50.304;19.028;2023-07-29T01:15:03;97321.38;;;17.63;70.17
40982;BME280;26708;50.304;19.028;2023-07-29T01:17:33;97555.38;;;18.99;70.30
40982;BME280;26708;50.304;19.028;2023-07-29T01:20:49;97763.47;;;19.97;70.42
40982;BME280;26708;50.304;19.028;2023-07-29T01:23:06;97761.09;;;20.08;70.58
40982;BME280;26708;50.304;19.028;2023-07-29T01:25:19;97362.91;;;17.79;70.09
40982;BME280;26708;50.304;19.028;2023-07-29T01:27:37;97516.88;;;18.75;70.04
40982;BME280;26708;50.304;19.028;2023-07-29T01:29:48;97517.41;;;18.82;69.85
40982;BME280;26708;50.304;19.028;2023-07-29T01:32:04;97356.25;;;17.71;69.62
40982;BME280;26708;50.304;19.028;2023-07-29T01:34:27;97506.75;;;18.66;69.79
40982;BME280;26708;50.304;19.028;2023-07-29T01:36:42;97513.59;;;18.70;69.84
40982;BME280;26708;50.304;19.028;2023-07-29T01:38:51;97440.78;;;18.26;69.72
40982;BME280;26708;50.304;19.028;2023-07-29T01:41:04;97443.09;;;18.15;70.02
40982;BME280;26708;50.304;19.028;2023-07-29T01:43:14;97541.81;;;18.88;69.94
40982;BME280;26708;50.304;19.028;2023-07-29T01:48:17;97465.44;;;18.45;69.68
40982;BME280;26708;50.304;19.028;2023-07-29T01:50:26;97571.38;;;18.81;69.68
40982;BME280;26708;50.304;19.028;2023-07-29T01:52:48;97516.72;;;18.61;69.54
40982;BME280;26708;50.304;19.028;2023-07-29T01:55:44;97535.75;;;18.69;69.53
40982;BME280;26708;50.304;19.028;2023-07-29T01:58:01;97482.78;;;18.17;69.86
40982;BME280;26708;50.304;19.028;2023-07-29T02:02:30;97522.13;;;18.60;69.98
40982;BME280;26708;50.304;19.028;2023-07-29T02:04:37;97681.28;;;19.45;70.38
40982;BME280;26708;50.304;19.028;2023-07-29T02:06:42;97522.81;;;18.63;70.31
40982;BME280;26708;50.304;19.028;2023-07-29T02:08:47;97613.75;;;19.16;70.14
40982;BME280;26708;50.304;19.028;2023-07-29T02:10:53;97434.09;;;18.02;70.23
40982;BME280;26708;50.304;19.028;2023-07-29T02:13:03;97690.25;;;19.42;70.07
40982;BME280;26708;50.304;19.028;2023-07-29T02:15:09;97493.63;;;18.46;69.91
40982;BME280;26708;50.304;19.028;2023-07-29T02:17:16;97669.88;;;19.26;69.86
40982;BME280;26708;50.304;19.028;2023-07-29T02:19:21;97664.00;;;19.36;69.98
40982;BME280;26708;50.304;19.028;2023-07-29T02:21:26;97458.06;;;17.99;69.76
40982;BME280;26708;50.304;19.028;2023-07-29T02:23:29;97359.63;;;17.56;69.69
40982;BME280;26708;50.304;19.028;2023-07-29T02:25:35;97385.84;;;17.62;69.81
40982;BME280;26708;50.304;19.028;2023-07-29T02:27:41;97392.78;;;17.64;70.05
40982;BME280;26708;50.304;19.028;2023-07-29T02:29:50;97388.91;;;17.71;69.82
40982;BME280;26708;50.304;19.028;2023-07-29T02:34:32;97554.28;;;18.69;70.01
40982;BME280;26708;50.304;19.028;2023-07-29T02:36:38;97537.84;;;18.63;70.11
40982;BME280;26708;50.304;19.028;2023-07-29T02:38:44;97414.28;;;17.92;70.11
40982;BME280;26708;50.304;19.028;2023-07-29T02:40:49;97526.47;;;18.44;70.34
40982;BME280;26708;50.304;19.028;2023-07-29T02:42:56;97648.69;;;19.07;70.27
40982;BME280;26708;50.304;19.028;2023-07-29T02:45:05;97667.28;;;19.24;70.21
40982;BME280;26708;50.304;19.028;2023-07-29T02:47:12;97451.84;;;18.17;70.10
40982;BME280;26708;50.304;19.028;2023-07-29T02:49:18;97580.75;;;18.88;70.00
40982;BME280;26708;50.304;19.028;2023-07-29T02:51:23;97482.06;;;18.13;69.83
40982;BME280;26708;50.304;19.028;2023-07-29T02:53:30;97591.34;;;18.71;69.91
40982;BME280;26708;50.304;19.028;2023-07-29T02:55:47;97398.50;;;17.55;69.67
40982;BME280;26708;50.304;19.028;2023-07-29T02:57:57;97694.16;;;19.35;69.72
40982;BME280;26708;50.304;19.028;2023-07-29T03:02:38;97603.13;;;18.82;69.87
40982;BME280;26708;50.304;19.028;2023-07-29T03:04:43;97528.97;;;18.47;70.09
40982;BME280;26708;50.304;19.028;2023-07-29T03:06:48;97653.31;;;19.21;70.21
40982;BME280;26708;50.304;19.028;2023-07-29T03:08:54;97658.72;;;19.19;70.12
40982;BME280;26708;50.304;19.028;2023-07-29T03:11:06;97811.09;;;19.85;70.23
40982;BME280;26708;50.304;19.028;2023-07-29T03:13:12;97483.94;;;18.11;70.04
40982;BME280;26708;50.304;19.028;2023-07-29T03:15:26;97657.59;;;19.06;70.20
40982;BME280;26708;50.304;19.028;2023-07-29T03:17:31;97468.50;;;17.85;70.19
40982;BME280;26708;50.304;19.028;2023-07-29T03:19:53;97695.31;;;19.13;70.22
40982;BME280;26708;50.304;19.028;2023-07-29T03:21:59;97597.19;;;18.60;69.91
40982;BME280;26708;50.304;19.028;2023-07-29T03:24:23;97783.84;;;19.80;69.71
40982;BME280;26708;50.304;19.028;2023-07-29T03:26:37;97558.81;;;18.50;69.74
40982;BME280;26708;50.304;19.028;2023-07-29T03:28:44;97539.16;;;18.37;69.63
40982;BME280;26708;50.304;19.028;2023-07-29T03:30:52;97713.66;;;19.34;69.49
40982;BME280;26708;50.304;19.028;2023-07-29T03:32:57;97721.53;;;19.19;69.55
40982;BME280;26708;50.304;19.028;2023-07-29T03:35:05;97404.06;;;17.49;69.30
40982;BME280;26708;50.304;19.028;2023-07-29T03:37:11;97601.31;;;18.66;69.45
40982;BME280;26708;50.304;19.028;2023-07-29T03:39:16;97390.13;;;17.46;69.51
40982;BME280;26708;50.304;19.028;2023-07-29T03:41:23;97452.81;;;17.81;69.68
40982;BME280;26708;50.304;19.028;2023-07-29T03:43:29;97429.88;;;17.44;69.98
40982;BME280;26708;50.304;19.028;2023-07-29T03:48:10;97599.75;;;18.45;70.13
40982;BME280;26708;50.304;19.028;2023-07-29T03:50:15;97511.91;;;18.00;69.97
40982;BME280;26708;50.304;19.028;2023-07-29T03:52:21;97817.84;;;19.73;70.06
40982;BME280;26708;50.304;19.028;2023-07-29T03:54:26;97625.03;;;18.69;69.90
40982;BME280;26708;50.304;19.028;2023-07-29T03:56:33;97429.97;;;17.61;69.99
40982;BME280;26708;50.304;19.028;2023-07-29T03:58:39;97627.31;;;18.76;70.19
40982;BME280;26708;50.304;19.028;2023-07-29T04:03:11;97709.28;;;19.16;70.00
40982;BME280;26708;50.304;19.028;2023-07-29T04:08:39;97801.97;;;19.72;70.07
40982;BME280;26708;50.304;19.028;2023-07-29T04:11:17;97512.59;;;18.03;70.17
40982;BME280;26708;50.304;19.028;2023-07-29T04:13:51;97578.69;;;18.23;70.42
40982;BME280;26708;50.304;19.028;2023-07-29T04:16:32;97830.03;;;19.77;70.46
40982;BME280;26708;50.304;19.028;2023-07-29T04:19:25;97452.25;;;17.56;70.27
40982;BME280;26708;50.304;19.028;2023-07-29T04:21:50;97584.56;;;18.48;70.31
40982;BME280;26708;50.304;19.028;2023-07-29T04:23:55;97774.00;;;19.65;70.43
40982;BME280;26708;50.304;19.028;2023-07-29T04:26:00;97806.13;;;19.94;70.21
40982;BME280;26708;50.304;19.028;2023-07-29T04:28:06;97491.91;;;18.11;70.13
40982;BME280;26708;50.304;19.028;2023-07-29T04:30:30;97823.47;;;20.01;70.47
40982;BME280;26708;50.304;19.028;2023-07-29T04:33:22;97499.84;;;18.11;70.21
40982;BME280;26708;50.304;19.028;2023-07-29T04:35:27;97591.66;;;18.82;70.19
40982;BME280;26708;50.304;19.028;2023-07-29T04:37:33;97763.78;;;19.91;70.07
40982;BME280;26708;50.304;19.028;2023-07-29T04:39:36;97731.47;;;19.49;70.13
40982;BME280;26708;50.304;19.028;2023-07-29T04:41:41;97403.38;;;17.81;69.91
40982;BME280;26708;50.304;19.028;2023-07-29T04:43:46;97597.81;;;18.99;69.88
40982;BME280;26708;50.304;19.028;2023-07-29T04:45:56;97458.56;;;18.24;69.73
40982;BME280;26708;50.304;19.028;2023-07-29T04:48:02;97448.03;;;18.06;69.69
40982;BME280;26708;50.304;19.028;2023-07-29T04:50:11;97630.75;;;19.29;69.72
40982;BME280;26708;50.304;19.028;2023-07-29T04:52:18;97464.97;;;18.37;69.38
40982;BME280;26708;50.304;19.028;2023-07-29T04:54:47;97801.75;;;20.43;69.90
40982;BME280;26708;50.304;19.028;2023-07-29T04:57:04;97558.91;;;19.00;69.88
40982;BME280;26708;50.304;19.028;2023-07-29T04:59:10;97608.75;;;19.10;69.47
40982;BME280;26708;50.304;19.028;2023-07-29T05:01:14;97744.91;;;20.13;69.39
40982;BME280;26708;50.304;19.028;2023-07-29T05:03:19;97742.16;;;20.14;69.51
40982;BME280;26708;50.304;19.028;2023-07-29T05:05:28;97626.56;;;19.58;69.63
40982;BME280;26708;50.304;19.028;2023-07-29T05:07:33;97610.28;;;19.48;69.52
40982;BME280;26708;50.304;19.028;2023-07-29T05:09:37;97586.84;;;19.39;68.94
40982;BME280;26708;50.304;19.028;2023-07-29T05:11:44;97628.53;;;19.54;68.96
40982;BME280;26708;50.304;19.028;2023-07-29T05:13:50;97777.94;;;20.57;68.45
40982;BME280;26708;50.304;19.028;2023-07-29T05:18:17;97855.13;;;20.87;68.58
40982;BME280;26708;50.304;19.028;2023-07-29T05:20:22;97616.63;;;19.61;68.49
40982;BME280;26708;50.304;19.028;2023-07-29T05:22:29;97650.00;;;19.82;68.11
40982;BME280;26708;50.304;19.028;2023-07-29T05:24:35;97650.66;;;19.70;68.18
40982;BME280;26708;50.304;19.028;2023-07-29T05:26:39;97835.84;;;20.99;68.37
40982;BME280;26708;50.304;19.028;2023-07-29T05:28:44;97832.22;;;21.00;68.29
40982;BME280;26708;50.304;19.028;2023-07-29T05:30:47;97832.72;;;21.07;68.32
40982;BME280;26708;50.304;19.028;2023-07-29T05:32:51;97731.31;;;20.34;68.61
40982;BME280;26708;50.304;19.028;2023-07-29T05:34:56;97830.59;;;20.98;68.60
40982;BME280;26708;50.304;19.028;2023-07-29T05:37:02;97823.47;;;21.14;68.52
40982;BME280;26708;50.304;19.028;2023-07-29T05:39:10;97647.56;;;19.95;68.21
40982;BME280;26708;50.304;19.028;2023-07-29T05:41:15;97776.44;;;20.83;67.67
40982;BME280;26708;50.304;19.028;2023-07-29T05:43:20;97776.06;;;20.89;67.71
40982;BME280;26708;50.304;19.028;2023-07-29T05:45:25;97836.00;;;21.43;67.38
40982;BME280;26708;50.304;19.028;2023-07-29T05:47:32;97606.88;;;20.10;67.36
40982;BME280;26708;50.304;19.028;2023-07-29T05:49:37;97702.25;;;20.62;67.31
40982;BME280;26708;50.304;19.028;2023-07-29T05:51:42;97713.22;;;20.87;67.19
40982;BME280;26708;50.304;19.028;2023-07-29T05:53:47;97647.34;;;20.46;66.76
40982;BME280;26708;50.304;19.028;2023-07-29T05:55:55;97837.25;;;21.67;66.35
40982;BME280;26708;50.304;19.028;2023-07-29T05:57:59;97608.16;;;20.34;66.08
40982;BME280;26708;50.304;19.028;2023-07-29T06:00:05;97682.00;;;20.59;66.13
40982;BME280;26708;50.304;19.028;2023-07-29T06:02:17;97842.03;;;21.76;66.51
40982;BME280;26708;50.304;19.028;2023-07-29T06:04:22;97844.50;;;21.79;66.10
40982;BME280;26708;50.304;19.028;2023-07-29T06:06:26;97789.31;;;21.51;65.90
40982;BME280;26708;50.304;19.028;2023-07-29T06:08:32;97743.69;;;21.28;65.91
40982;BME280;26708;50.304;19.028;2023-07-29T06:10:37;97775.84;;;21.39;65.15
40982;BME280;26708;50.304;19.028;2023-07-29T06:12:44;97450.22;;;19.62;65.00
40982;BME280;26708;50.304;19.028;2023-07-29T06:14:50;97825.97;;;21.77;64.94
40982;BME280;26708;50.304;19.028;2023-07-29T06:16:54;97631.72;;;20.70;64.45
40982;BME280;26708;50.304;19.028;2023-07-29T06:18:57;97785.25;;;21.60;64.42
40982;BME280;26708;50.304;19.028;2023-07-29T06:21:03;97735.75;;;21.42;64.31
40982;BME280;26708;50.304;19.028;2023-07-29T06:23:09;97620.53;;;20.79;64.05
40982;BME280;26708;50.304;19.028;2023-07-29T06:25:13;97831.03;;;22.11;63.74
40982;BME280;26708;50.304;19.028;2023-07-29T06:27:19;97873.63;;;22.41;63.88
40982;BME280;26708;50.304;19.028;2023-07-29T06:29:27;97846.50;;;22.48;63.64
40982;BME280;26708;50.304;19.028;2023-07-29T06:31:31;97840.28;;;22.48;63.07
40982;BME280;26708;50.304;19.028;2023-07-29T06:33:37;97558.13;;;20.85;62.56
40982;BME280;26708;50.304;19.028;2023-07-29T06:35:41;97856.44;;;22.60;62.48
40982;BME280;26708;50.304;19.028;2023-07-29T06:37:46;97618.53;;;21.12;62.75
40982;BME280;26708;50.304;19.028;2023-07-29T06:39:51;97670.88;;;21.43;62.31
40982;BME280;26708;50.304;19.028;2023-07-29T06:41:56;97707.53;;;21.81;62.64
40982;BME280;26708;50.304;19.028;2023-07-29T06:44:01;97818.66;;;22.52;62.83
40982;BME280;26708;50.304;19.028;2023-07-29T06:46:09;97805.78;;;22.31;62.84
40982;BME280;26708;50.304;19.028;2023-07-29T06:48:13;97742.34;;;22.22;62.83
40982;BME280;26708;50.304;19.028;2023-07-29T06:50:18;97543.25;;;21.10;62.37
40982;BME280;26708;50.304;19.028;2023-07-29T06:52:24;97686.34;;;21.94;62.38
40982;BME280;26708;50.304;19.028;2023-07-29T06:54:28;97862.59;;;23.03;62.04
40982;BME280;26708;50.304;19.028;2023-07-29T06:56:33;97649.31;;;21.61;61.82
40982;BME280;26708;50.304;19.028;2023-07-29T06:58:39;97746.16;;;22.32;61.71
40982;BME280;26708;50.304;19.028;2023-07-29T07:00:44;97773.41;;;22.51;61.37
40982;BME280;26708;50.304;19.028;2023-07-29T07:02:51;97795.06;;;22.60;59.99
40982;BME280;26708;50.304;19.028;2023-07-29T07:04:56;97799.31;;;22.49;59.91
40982;BME280;26708;50.304;19.028;2023-07-29T07:07:01;97787.16;;;22.59;59.89
40982;BME280;26708;50.304;19.028;2023-07-29T07:09:05;97851.00;;;22.90;60.01
40982;BME280;26708;50.304;19.028;2023-07-29T07:11:10;97843.75;;;22.78;60.06
40982;BME280;26708;50.304;19.028;2023-07-29T07:13:12;97863.47;;;22.89;60.10
40982;BME280;26708;50.304;19.028;2023-07-29T07:15:17;97615.03;;;21.41;60.29
40982;BME280;26708;50.304;19.028;2023-07-29T07:17:20;97863.69;;;22.86;60.60
40982;BME280;26708;50.304;19.028;2023-07-29T07:19:27;97682.97;;;21.62;60.87
40982;BME280;26708;50.304;19.028;2023-07-29T07:21:31;97859.09;;;22.74;61.46
40982;BME280;26708;50.304;19.028;2023-07-29T07:23:38;97743.97;;;21.96;61.24
40982;BME280;26708;50.304;19.028;2023-07-29T07:25:40;97747.88;;;22.05;61.34
40982;BME280;26708;50.304;19.028;2023-07-29T07:27:45;97711.09;;;21.82;61.51
40982;BME280;26708;50.304;19.028;2023-07-29T07:29:52;97897.91;;;22.80;61.58
40982;BME280;26708;50.304;19.028;2023-07-29T07:31:57;97672.72;;;21.70;61.89
40982;BME280;26708;50.304;19.028;2023-07-29T07:34:02;97790.63;;;22.45;61.60
40982;BME280;26708;50.304;19.028;2023-07-29T07:36:10;97661.16;;;21.56;60.96
40982;BME280;26708;50.304;19.028;2023-07-29T07:38:15;97645.78;;;21.61;60.56
40982;BME280;26708;50.304;19.028;2023-07-29T07:40:19;97860.53;;;22.94;60.98
40982;BME280;26708;50.304;19.028;2023-07-29T07:42:25;97854.34;;;22.93;61.23
40982;BME280;26708;50.304;19.028;2023-07-29T07:44:30;97565.94;;;21.31;60.32
40982;BME280;26708;50.304;19.028;2023-07-29T07:46:34;97840.41;;;22.88;60.34
40982;BME280;26708;50.304;19.028;2023-07-29T07:48:40;97857.03;;;23.20;60.94
40982;BME280;26708;50.304;19.028;2023-07-29T07:50:44;97567.56;;;21.48;59.63
40982;BME280;26708;50.304;19.028;2023-07-29T07:52:52;97853.81;;;23.15;59.71
40982;BME280;26708;50.304;19.028;2023-07-29T07:54:57;97773.16;;;22.96;59.03
40982;BME280;26708;50.304;19.028;2023-07-29T07:57:02;97662.50;;;22.33;57.96
40982;BME280;26708;50.304;19.028;2023-07-29T07:59:07;97860.63;;;23.47;57.96
40982;BME280;26708;50.304;19.028;2023-07-29T08:01:12;97853.19;;;23.52;57.61
40982;BME280;26708;50.304;19.028;2023-07-29T08:03:17;97850.16;;;23.44;57.98
40982;BME280;26708;50.304;19.028;2023-07-29T08:05:21;97843.69;;;23.60;57.66
40982;BME280;26708;50.304;19.028;2023-07-29T08:07:27;97701.44;;;22.77;57.68
40982;BME280;26708;50.304;19.028;2023-07-29T08:09:34;97705.09;;;22.62;57.82
40982;BME280;26708;50.304;19.028;2023-07-29T08:11:38;97849.84;;;23.75;56.88
40982;BME280;26708;50.304;19.028;2023-07-29T08:13:44;97862.13;;;23.77;56.25
40982;BME280;26708;50.304;19.028;2023-07-29T08:15:50;97846.88;;;23.79;55.94
40982;BME280;26708;50.304;19.028;2023-07-29T08:17:55;97776.56;;;23.38;56.42
40982;BME280;26708;50.304;19.028;2023-07-29T08:20:00;97852.09;;;23.81;56.20
40982;BME280;26708;50.304;19.028;2023-07-29T08:22:02;97697.66;;;22.94;56.62
40982;BME280;26708;50.304;19.028;2023-07-29T08:24:07;97783.53;;;23.41;56.99
40982;BME280;26708;50.304;19.028;2023-07-29T08:26:15;97848.44;;;23.82;56.62
40982;BME280;26708;50.304;19.028;2023-07-29T08:28:20;97839.59;;;23.81;56.80
40982;BME280;26708;50.304;19.028;2023-07-29T08:30:25;97837.22;;;23.77;56.75
40982;BME280;26708;50.304;19.028;2023-07-29T08:32:30;97853.56;;;23.86;56.86
40982;BME280;26708;50.304;19.028;2023-07-29T08:34:34;97739.72;;;23.17;56.51
40982;BME280;26708;50.304;19.028;2023-07-29T08:36:41;97614.84;;;22.41;55.94
40982;BME280;26708;50.304;19.028;2023-07-29T08:38:47;97623.44;;;22.46;55.75
40982;BME280;26708;50.304;19.028;2023-07-29T08:40:57;97849.19;;;23.98;55.76
40982;BME280;26708;50.304;19.028;2023-07-29T08:43:12;97614.47;;;22.61;55.76
40982;BME280;26708;50.304;19.028;2023-07-29T08:45:24;97750.94;;;23.36;53.66
40982;BME280;26708;50.304;19.028;2023-07-29T08:49:54;97839.66;;;24.06;53.44
40982;BME280;26708;50.304;19.028;2023-07-29T08:52:01;97608.19;;;22.74;54.11
40982;BME280;26708;50.304;19.028;2023-07-29T08:54:06;97844.38;;;24.15;54.49
40982;BME280;26708;50.304;19.028;2023-07-29T08:56:12;97626.63;;;23.04;54.19
40982;BME280;26708;50.304;19.028;2023-07-29T08:58:20;97568.13;;;22.62;54.01
40982;BME280;26708;50.304;19.028;2023-07-29T09:00:23;97645.66;;;23.12;53.87
40982;BME280;26708;50.304;19.028;2023-07-29T09:02:28;97825.25;;;24.34;53.43
40982;BME280;26708;50.304;19.028;2023-07-29T09:04:33;97704.44;;;23.51;53.52
40982;BME280;26708;50.304;19.028;2023-07-29T09:06:39;97806.09;;;24.15;53.18
40982;BME280;26708;50.304;19.028;2023-07-29T09:08:49;97812.59;;;24.36;53.49
40982;BME280;26708;50.304;19.028;2023-07-29T09:10:56;97629.22;;;23.18;53.38
40982;BME280;26708;50.304;19.028;2023-07-29T09:13:01;97778.47;;;24.02;52.81
40982;BME280;26708;50.304;19.028;2023-07-29T09:15:10;97822.16;;;24.40;52.94
40982;BME280;26708;50.304;19.028;2023-07-29T09:17:16;97820.22;;;24.42;52.89
40982;BME280;26708;50.304;19.028;2023-07-29T09:19:20;97769.69;;;24.12;53.50
40982;BME280;26708;50.304;19.028;2023-07-29T09:21:29;97779.75;;;24.21;53.39
40982;BME280;26708;50.304;19.028;2023-07-29T09:23:39;97508.56;;;22.61;53.59
40982;BME280;26708;50.304;19.028;2023-07-29T09:25:46;97811.06;;;24.46;53.36
40982;BME280;26708;50.304;19.028;2023-07-29T09:27:51;97535.41;;;22.85;53.74
40982;BME280;26708;50.304;19.028;2023-07-29T09:29:57;97614.34;;;23.40;52.74
40982;BME280;26708;50.304;19.028;2023-07-29T09:32:20;97691.66;;;23.81;49.74
40982;BME280;26708;50.304;19.028;2023-07-29T09:34:26;97809.97;;;24.61;49.25
40982;BME280;26708;50.304;19.028;2023-07-29T09:36:33;97541.31;;;23.02;51.48
40982;BME280;26708;50.304;19.028;2023-07-29T09:38:47;97641.50;;;23.72;52.65
40982;BME280;26708;50.304;19.028;2023-07-29T09:40:57;97611.25;;;23.71;52.36
40982;BME280;26708;50.304;19.028;2023-07-29T09:43:04;97748.59;;;24.58;49.74
40982;BME280;26708;50.304;19.028;2023-07-29T09:45:10;97617.56;;;23.95;49.71
40982;BME280;26708;50.304;19.028;2023-07-29T09:47:23;97591.00;;;23.80;49.30
40982;BME280;26708;50.304;19.028;2023-07-29T09:49:35;97530.31;;;23.57;49.21
40982;BME280;26708;50.304;19.028;2023-07-29T09:51:42;97545.28;;;23.47;48.66
40982;BME280;26708;50.304;19.028;2023-07-29T09:53:48;97763.63;;;24.96;49.51
40982;BME280;26708;50.304;19.028;2023-07-29T09:55:58;97510.88;;;23.42;49.59
40982;BME280;26708;50.304;19.028;2023-07-29T09:58:26;97479.47;;;23.33;49.78
40982;BME280;26708;50.304;19.028;2023-07-29T10:00:50;97600.78;;;24.29;49.82
40982;BME280;26708;50.304;19.028;2023-07-29T10:02:59;97786.63;;;25.34;49.72
40982;BME280;26708;50.304;19.028;2023-07-29T10:05:06;97564.88;;;24.08;50.04
40982;BME280;26708;50.304;19.028;2023-07-29T10:07:12;97422.50;;;23.20;49.34
40982;BME280;26708;50.304;19.028;2023-07-29T10:09:20;97583.91;;;24.29;49.08
40982;BME280;26708;50.304;19.028;2023-07-29T10:11:36;97417.91;;;23.35;48.63
40982;BME280;26708;50.304;19.028;2023-07-29T10:13:50;97708.44;;;24.94;49.14
40982;BME280;26708;50.304;19.028;2023-07-29T10:16:00;97564.97;;;24.19;48.29
40982;BME280;26708;50.304;19.028;2023-07-29T10:18:08;97503.34;;;23.85;48.22
40982;BME280;26708;50.304;19.028;2023-07-29T10:20:13;97745.41;;;25.24;48.74
40982;BME280;26708;50.304;19.028;2023-07-29T10:22:20;97773.50;;;25.42;48.71
40982;BME280;26708;50.304;19.028;2023-07-29T10:24:33;97402.88;;;23.09;48.90
40982;BME280;26708;50.304;19.028;2023-07-29T10:33:07;97627.63;;;24.53;48.39
40982;BME280;26708;50.304;19.028;2023-07-29T10:35:14;97764.97;;;25.37;48.28
40982;BME280;26708;50.304;19.028;2023-07-29T10:37:20;97699.25;;;24.85;47.67
40982;BME280;26708;50.304;19.028;2023-07-29T10:39:26;97765.47;;;25.42;47.27
40982;BME280;26708;50.304;19.028;2023-07-29T10:41:56;97766.19;;;25.44;47.15
40982;BME280;26708;50.304;19.028;2023-07-29T10:44:01;97765.53;;;25.53;47.31
40982;BME280;26708;50.304;19.028;2023-07-29T10:51:27;97769.00;;;25.66;47.79
40982;BME280;26708;50.304;19.028;2023-07-29T10:53:37;97622.50;;;24.73;47.06
40982;BME280;26708;50.304;19.028;2023-07-29T10:55:43;97724.19;;;25.56;47.59
40982;BME280;26708;50.304;19.028;2023-07-29T10:57:48;97764.34;;;25.81;47.29
40982;BME280;26708;50.304;19.028;2023-07-29T10:59:55;97732.44;;;25.65;47.67
40982;BME280;26708;50.304;19.028;2023-07-29T11:02:01;97759.44;;;25.86;47.57
40982;BME280;26708;50.304;19.028;2023-07-29T11:04:26;97759.09;;;25.90;46.79
40982;BME280;26708;50.304;19.028;2023-07-29T11:09:40;97470.63;;;24.28;46.33
40982;BME280;26708;50.304;19.028;2023-07-29T11:11:44;97728.84;;;25.77;46.85
40982;BME280;26708;50.304;19.028;2023-07-29T11:13:48;97564.13;;;24.89;46.72
40982;BME280;26708;50.304;19.028;2023-07-29T11:15:53;97626.25;;;25.28;47.02
40982;BME280;26708;50.304;19.028;2023-07-29T11:18:00;97717.38;;;25.86;46.51
40982;BME280;26708;50.304;19.028;2023-07-29T11:20:09;97722.03;;;25.95;46.40
40982;BME280;26708;50.304;19.028;2023-07-29T11:22:12;97741.81;;;26.05;46.03
40982;BME280;26708;50.304;19.028;2023-07-29T11:24:18;97736.59;;;26.15;46.38
40982;BME280;26708;50.304;19.028;2023-07-29T11:26:23;97747.22;;;26.16;46.50
40982;BME280;26708;50.304;19.028;2023-07-29T11:28:28;97735.75;;;26.14;46.07
40982;BME280;26708;50.304;19.028;2023-07-29T11:30:34;97486.41;;;24.67;46.06
40982;BME280;26708;50.304;19.028;2023-07-29T11:32:40;97369.56;;;23.86;46.40
40982;BME280;26708;50.304;19.028;2023-07-29T11:34:48;97725.22;;;26.11;46.76
40982;BME280;26708;50.304;19.028;2023-07-29T11:36:53;97568.84;;;25.09;46.01
40982;BME280;26708;50.304;19.028;2023-07-29T11:38:58;97678.97;;;25.86;45.78
40982;BME280;26708;50.304;19.028;2023-07-29T11:41:02;97591.91;;;25.23;45.78
40982;BME280;26708;50.304;19.028;2023-07-29T11:43:05;97731.31;;;26.13;45.40
40982;BME280;26708;50.304;19.028;2023-07-29T11:45:10;97587.91;;;25.28;45.14
40982;BME280;26708;50.304;19.028;2023-07-29T11:47:14;97722.31;;;26.14;45.44
40982;BME280;26708;50.304;19.028;2023-07-29T11:49:22;97723.16;;;26.15;45.66
40982;BME280;26708;50.304;19.028;2023-07-29T11:51:26;97685.44;;;25.94;45.82
40982;BME280;26708;50.304;19.028;2023-07-29T11:53:34;97473.88;;;24.68;46.08
40982;BME280;26708;50.304;19.028;2023-07-29T11:55:41;97623.22;;;25.67;45.80
40982;BME280;26708;50.304;19.028;2023-07-29T11:57:51;97728.91;;;26.21;46.08
40982;BME280;26708;50.304;19.028;2023-07-29T12:00:16;97459.63;;;24.67;45.55
40982;BME280;26708;50.304;19.028;2023-07-29T12:02:32;97723.66;;;26.20;45.93
40982;BME280;26708;50.304;19.028;2023-07-29T12:05:10;97717.25;;;26.22;46.03
40982;BME280;26708;50.304;19.028;2023-07-29T12:07:17;97716.25;;;26.23;46.45